Depok
Home > Kaskuser Regional > INDONESIA > JABAR, DKI & BANTEN > Depok > ▓▓▒▒ Radar Cuaca JABODETABEK dan Sekitarnya™ ▒▒▓▓
Total Views: 4268 Share : Facebook ShareFacebook Twitter ShareTwitter Google+ ShareGoogle+
Page 7 of 21 | ‹ First  < 2 3 4 5 6 7 8 9 10 11 12 >  Last ›

dianabazz - 14/04/2012 02:11 PM
#121

▓▓▒▒ Radar Cuaca JABODETABEK dan Sekitarnya™ ▒▒▓▓
dianabazz - 15/04/2012 08:40 AM
#122

T A F O R



TAF WIII 142300Z 1500/1606 24005KT 5000 HZ SCT020 BECMG 1501/1503 06010KT 9000 SCT022 TEMPO 1508/1512 TS FEW020CB BECMG 1512/1514 22005KT 4000 BR FEW022=



Bingung cara bacanya???bingungs
klik aja Cara membaca TAFOR
atau menggunakan decoder diSINI
tapi jangan lupa untuk membuang "TAF" di awal dan "=" di akhir


dianabazz - 15/04/2012 08:43 AM
#123

▓▓▒▒ Radar Cuaca JABODETABEK dan Sekitarnya™ ▒▒▓▓
dianabazz - 16/04/2012 01:11 PM
#124

T A F O R



TAF WIII 152300Z 1600/1706 VRB03KT 8000 SCT022 BECMG 1603/1605 07008G18KT FEW022CB PROB40 TEMPO 1606/1611 5000 TSRA FEW018CB SCT020 BECMG 1613/1615 VRB03KT 7000 NSW FEW022 TEMPO 1620/1623 3000 BR BECMG 1700/1702 8000 NSW SCT020 BECMG 1703/1705 06010KT=



Bingung cara bacanya???bingungs
klik aja Cara membaca TAFOR
atau menggunakan decoder diSINI
tapi jangan lupa untuk membuang "TAF" di awal dan "=" di akhir



dianabazz - 16/04/2012 01:14 PM
#125


▓▓▒▒ Radar Cuaca JABODETABEK dan Sekitarnya™ ▒▒▓▓

ChAnIaGo.LB - 17/04/2012 04:26 PM
#126

Blok M Hujan gan...
mulai reda sihh...

masih tinggal rintikan aja...
hati2 bagi pengendara motor...
Jalan Licin hammer:
dianabazz - 17/04/2012 11:34 PM
#127

T A F O R



TAF WIII 171100Z 1712/1818 15005KT 4000 BR FEW020 PROB30 TEMPO 1718/1722 4000 -RA FEW018CB SCT020 BECMG 1802/1804 05010KT 9999 SCT022 PROB30 TEMPO 1806/1810 3000 TSRA FEW020CB=



Bingung cara bacanya???bingungs
klik aja Cara membaca TAFOR
atau menggunakan decoder diSINI
tapi jangan lupa untuk membuang "TAF" di awal dan "=" di akhir




Quote:
Original Posted By ChAnIaGo.LB
Blok M Hujan gan...
mulai reda sihh...

masih tinggal rintikan aja...
hati2 bagi pengendara motor...
Jalan Licin hammer:


terimakasih atas infonya gan \)
dianabazz - 17/04/2012 11:36 PM
#128

▓▓▒▒ Radar Cuaca JABODETABEK dan Sekitarnya™ ▒▒▓▓
dianabazz - 19/04/2012 01:42 PM
#129

▓▓▒▒ Radar Cuaca JABODETABEK dan Sekitarnya™ ▒▒▓▓
dianabazz - 19/04/2012 01:44 PM
#130

T A F O R



WIII 1906/1918 24008KT 9999 FEW020 PROB40 TEMPO 1908/1912 2000 TSRA SCT010CB BKN015 BECMG 1914/1916 00000KT 7000 FEW020=



Bingung cara bacanya???bingungs
klik aja Cara membaca TAFOR
atau menggunakan decoder diSINI
tapi jangan lupa untuk membuang "TAF" di awal dan "=" di akhir

dianabazz - 19/04/2012 01:45 PM
#131

▓▓▒▒ Radar Cuaca JABODETABEK dan Sekitarnya™ ▒▒▓▓
dianabazz - 20/04/2012 08:05 AM
#132

T A F O R



TAF WIII 192300Z 2000/2106 12008KT 9999 FEW020 PROB40 TEMPO 2008/2010 30008KT 2000 TSRA FEW010CB BKN015 BECMG 2012/2014 15005KT 7000 FEW020 BECMG 2018/2020 00000KT 2000 BR NSC BECMG 2100/2102 15008KT 9999 FEW020=



Bingung cara bacanya???bingungs
klik aja Cara membaca TAFOR
atau menggunakan decoder diSINI
tapi jangan lupa untuk membuang "TAF" di awal dan "=" di akhir
dianabazz - 20/04/2012 08:07 AM
#133

▓▓▒▒ Radar Cuaca JABODETABEK dan Sekitarnya™ ▒▒▓▓
Aray Suck - 20/04/2012 08:29 AM
#134

wew.. baru tau ada trit prakiraan cuaca.. matabelo:

skill TS nya mirip nami nih klo di one piece.. recsel
dianabazz - 21/04/2012 07:45 AM
#135

T A F O R



TAF WIII 202300Z 2100/2206 VRB02KT 8000 SCT022 BECMG 2102/2104 04010KT FEW022CB TEMPO 2106/2111 4000 TSRA FEW018CB BKN020 BECMG 2113/2115 VRB02KT 7000 NSW FEW022 BECMG 2118/2120 18003KT 3000 BR BECMG 2200/2202 8000 NSW SCT020 BECMG 2203/2205 05010KT=



Bingung cara bacanya???bingungs
klik aja Cara membaca TAFOR
atau menggunakan decoder diSINI
tapi jangan lupa untuk membuang "TAF" di awal dan "=" di akhir



Quote:
Original Posted By Aray Suck
wew.. baru tau ada trit prakiraan cuaca.. matabelo:

skill TS nya mirip nami nih klo di one piece.. recsel

hammer:
ni dari prakiraan mas gan, bukan skill saya
dianabazz - 21/04/2012 07:48 AM
#136

▓▓▒▒ Radar Cuaca JABODETABEK dan Sekitarnya™ ▒▒▓▓
dianabazz - 24/04/2012 01:38 PM
#137

▓▓▒▒ Radar Cuaca JABODETABEK dan Sekitarnya™ ▒▒▓▓
dianabazz - 24/04/2012 01:40 PM
#138

T A F O R



TAF WIII 240500Z 2406/2512 05010KT 9999 SCT022 BECMG 2412/2414 19005KT 4000 BR FEW020 BECMG 2502/2504 05010KT 9999 SCT022=



Bingung cara bacanya???bingungs
klik aja Cara membaca TAFOR
atau menggunakan decoder diSINI
tapi jangan lupa untuk membuang "TAF" di awal dan "=" di akhir
dianabazz - 24/04/2012 01:42 PM
#139

▓▓▒▒ Radar Cuaca JABODETABEK dan Sekitarnya™ ▒▒▓▓
ChAnIaGo.LB - 24/04/2012 10:42 PM
#140

malam ini cukup cerah beer:

Quote:
Original Posted By dianabazz
▓▓▒▒ Radar Cuaca JABODETABEK dan Sekitarnya™ ▒▒▓▓


ini apa yah bingungs
Page 7 of 21 | ‹ First  < 2 3 4 5 6 7 8 9 10 11 12 >  Last ›
Home > Kaskuser Regional > INDONESIA > JABAR, DKI & BANTEN > Depok > ▓▓▒▒ Radar Cuaca JABODETABEK dan Sekitarnya™ ▒▒▓▓